sensor_id;sensor_type;location;lat;lon;timestamp;P1;durP1;ratioP1;P2;durP2;ratioP2
75684;SDS011;64298;46.050;38.164;2023-04-03T00:01:18;7.53;;;3.22;;
75684;SDS011;64298;46.050;38.164;2023-04-03T00:03:44;7.47;;;3.65;;
75684;SDS011;64298;46.050;38.164;2023-04-03T00:06:29;10.18;;;3.83;;
75684;SDS011;64298;46.050;38.164;2023-04-03T00:08:55;6.95;;;3.65;;
75684;SDS011;64298;46.050;38.164;2023-04-03T00:11:28;7.93;;;3.75;;
75684;SDS011;64298;46.050;38.164;2023-04-03T00:14:15;13.75;;;3.53;;
75684;SDS011;64298;46.050;38.164;2023-04-03T00:16:43;8.95;;;4.22;;
75684;SDS011;64298;46.050;38.164;2023-04-03T00:19:16;8.60;;;3.70;;
75684;SDS011;64298;46.050;38.164;2023-04-03T00:21:42;14.18;;;4.00;;
75684;SDS011;64298;46.050;38.164;2023-04-03T00:24:08;9.18;;;3.90;;
75684;SDS011;64298;46.050;38.164;2023-04-03T00:26:34;10.25;;;4.03;;
75684;SDS011;64298;46.050;38.164;2023-04-03T00:29:00;10.20;;;4.18;;
75684;SDS011;64298;46.050;38.164;2023-04-03T00:31:32;13.75;;;4.18;;
75684;SDS011;64298;46.050;38.164;2023-04-03T00:34:00;7.90;;;3.60;;
75684;SDS011;64298;46.050;38.164;2023-04-03T00:36:26;10.20;;;3.42;;
75684;SDS011;64298;46.050;38.164;2023-04-03T00:38:52;12.40;;;3.75;;
75684;SDS011;64298;46.050;38.164;2023-04-03T00:41:38;9.57;;;4.07;;
75684;SDS011;64298;46.050;38.164;2023-04-03T00:47:05;9.50;;;3.58;;
75684;SDS011;64298;46.050;38.164;2023-04-03T00:49:32;11.23;;;3.60;;
75684;SDS011;64298;46.050;38.164;2023-04-03T00:51:58;13.18;;;4.00;;
75684;SDS011;64298;46.050;38.164;2023-04-03T00:54:27;9.70;;;4.00;;
75684;SDS011;64298;46.050;38.164;2023-04-03T00:56:53;11.23;;;3.13;;
75684;SDS011;64298;46.050;38.164;2023-04-03T00:59:23;8.45;;;4.32;;
75684;SDS011;64298;46.050;38.164;2023-04-03T01:01:52;10.93;;;3.72;;
75684;SDS011;64298;46.050;38.164;2023-04-03T01:04:35;9.65;;;4.20;;
75684;SDS011;64298;46.050;38.164;2023-04-03T01:07:07;10.38;;;3.95;;
75684;SDS011;64298;46.050;38.164;2023-04-03T01:09:36;9.90;;;3.90;;
75684;SDS011;64298;46.050;38.164;2023-04-03T01:12:16;10.52;;;4.20;;
75684;SDS011;64298;46.050;38.164;2023-04-03T01:14:53;11.30;;;4.20;;
75684;SDS011;64298;46.050;38.164;2023-04-03T01:17:33;9.25;;;3.53;;
75684;SDS011;64298;46.050;38.164;2023-04-03T01:25:19;10.02;;;3.50;;
75684;SDS011;64298;46.050;38.164;2023-04-03T01:27:48;10.60;;;4.53;;
75684;SDS011;64298;46.050;38.164;2023-04-03T01:30:21;10.82;;;4.10;;
75684;SDS011;64298;46.050;38.164;2023-04-03T01:32:57;12.95;;;3.80;;
75684;SDS011;64298;46.050;38.164;2023-04-03T01:35:23;12.75;;;3.47;;
75684;SDS011;64298;46.050;38.164;2023-04-03T01:37:52;9.80;;;3.13;;
75684;SDS011;64298;46.050;38.164;2023-04-03T01:42:52;9.82;;;3.40;;
75684;SDS011;64298;46.050;38.164;2023-04-03T01:45:18;12.82;;;3.22;;
75684;SDS011;64298;46.050;38.164;2023-04-03T01:47:53;10.38;;;3.83;;
75684;SDS011;64298;46.050;38.164;2023-04-03T01:50:19;8.00;;;3.50;;
75684;SDS011;64298;46.050;38.164;2023-04-03T01:52:46;9.52;;;3.42;;
75684;SDS011;64298;46.050;38.164;2023-04-03T01:55:14;10.63;;;4.20;;
75684;SDS011;64298;46.050;38.164;2023-04-03T01:57:44;10.48;;;3.08;;
75684;SDS011;64298;46.050;38.164;2023-04-03T02:00:12;7.93;;;3.03;;
75684;SDS011;64298;46.050;38.164;2023-04-03T02:02:41;10.23;;;3.40;;
75684;SDS011;64298;46.050;38.164;2023-04-03T02:05:10;5.95;;;3.15;;
75684;SDS011;64298;46.050;38.164;2023-04-03T02:07:36;8.13;;;3.35;;
75684;SDS011;64298;46.050;38.164;2023-04-03T02:10:04;6.95;;;3.17;;
75684;SDS011;64298;46.050;38.164;2023-04-03T02:12:31;6.07;;;3.08;;
75684;SDS011;64298;46.050;38.164;2023-04-03T02:14:57;10.90;;;3.90;;
75684;SDS011;64298;46.050;38.164;2023-04-03T02:17:23;8.70;;;3.03;;
75684;SDS011;64298;46.050;38.164;2023-04-03T02:19:49;11.38;;;2.70;;
75684;SDS011;64298;46.050;38.164;2023-04-03T02:22:16;12.55;;;3.80;;
75684;SDS011;64298;46.050;38.164;2023-04-03T02:24:45;10.65;;;3.05;;
75684;SDS011;64298;46.050;38.164;2023-04-03T02:27:11;7.72;;;3.00;;
75684;SDS011;64298;46.050;38.164;2023-04-03T02:29:37;13.60;;;3.38;;
75684;SDS011;64298;46.050;38.164;2023-04-03T02:32:04;7.32;;;3.33;;
75684;SDS011;64298;46.050;38.164;2023-04-03T02:34:31;11.98;;;3.90;;
75684;SDS011;64298;46.050;38.164;2023-04-03T02:37:04;8.73;;;3.22;;
75684;SDS011;64298;46.050;38.164;2023-04-03T02:39:30;10.82;;;3.28;;
75684;SDS011;64298;46.050;38.164;2023-04-03T02:41:58;8.05;;;3.45;;
75684;SDS011;64298;46.050;38.164;2023-04-03T02:44:27;13.38;;;3.85;;
75684;SDS011;64298;46.050;38.164;2023-04-03T02:46:59;8.77;;;2.92;;
75684;SDS011;64298;46.050;38.164;2023-04-03T02:49:28;7.35;;;2.88;;
75684;SDS011;64298;46.050;38.164;2023-04-03T02:51:54;12.27;;;2.63;;
75684;SDS011;64298;46.050;38.164;2023-04-03T02:54:21;9.70;;;2.70;;
75684;SDS011;64298;46.050;38.164;2023-04-03T02:56:51;7.95;;;2.13;;
75684;SDS011;64298;46.050;38.164;2023-04-03T02:59:20;5.13;;;2.25;;
75684;SDS011;64298;46.050;38.164;2023-04-03T03:01:49;9.10;;;2.60;;
75684;SDS011;64298;46.050;38.164;2023-04-03T03:04:15;5.85;;;2.65;;
75684;SDS011;64298;46.050;38.164;2023-04-03T03:06:41;11.90;;;2.25;;
75684;SDS011;64298;46.050;38.164;2023-04-03T03:09:13;9.57;;;2.47;;
75684;SDS011;64298;46.050;38.164;2023-04-03T03:11:44;6.95;;;2.50;;
75684;SDS011;64298;46.050;38.164;2023-04-03T03:14:12;7.57;;;2.40;;
75684;SDS011;64298;46.050;38.164;2023-04-03T03:19:06;6.90;;;2.38;;
75684;SDS011;64298;46.050;38.164;2023-04-03T03:21:35;8.25;;;2.50;;
75684;SDS011;64298;46.050;38.164;2023-04-03T03:24:01;10.70;;;2.40;;
75684;SDS011;64298;46.050;38.164;2023-04-03T03:26:27;6.75;;;2.38;;
75684;SDS011;64298;46.050;38.164;2023-04-03T03:28:56;14.32;;;2.95;;
75684;SDS011;64298;46.050;38.164;2023-04-03T03:31:21;7.25;;;2.78;;
75684;SDS011;64298;46.050;38.164;2023-04-03T03:34:09;9.95;;;2.80;;
75684;SDS011;64298;46.050;38.164;2023-04-03T03:36:35;11.60;;;2.78;;
75684;SDS011;64298;46.050;38.164;2023-04-03T03:39:01;11.27;;;3.17;;
75684;SDS011;64298;46.050;38.164;2023-04-03T03:41:28;8.63;;;2.70;;
75684;SDS011;64298;46.050;38.164;2023-04-03T03:43:57;6.75;;;2.92;;
75684;SDS011;64298;46.050;38.164;2023-04-03T03:46:25;9.70;;;2.78;;
75684;SDS011;64298;46.050;38.164;2023-04-03T03:48:52;12.07;;;3.70;;
75684;SDS011;64298;46.050;38.164;2023-04-03T03:51:24;12.57;;;3.17;;
75684;SDS011;64298;46.050;38.164;2023-04-03T03:53:56;7.13;;;2.58;;
75684;SDS011;64298;46.050;38.164;2023-04-03T03:56:25;6.63;;;2.90;;
75684;SDS011;64298;46.050;38.164;2023-04-03T03:58:54;9.75;;;3.70;;
75684;SDS011;64298;46.050;38.164;2023-04-03T04:01:28;10.18;;;3.20;;
75684;SDS011;64298;46.050;38.164;2023-04-03T04:03:57;8.55;;;3.42;;
75684;SDS011;64298;46.050;38.164;2023-04-03T04:06:30;14.30;;;3.08;;
75684;SDS011;64298;46.050;38.164;2023-04-03T04:09:02;12.75;;;3.03;;
75684;SDS011;64298;46.050;38.164;2023-04-03T04:11:31;11.13;;;2.58;;
75684;SDS011;64298;46.050;38.164;2023-04-03T04:14:05;9.32;;;2.70;;
75684;SDS011;64298;46.050;38.164;2023-04-03T04:16:32;7.28;;;3.15;;
75684;SDS011;64298;46.050;38.164;2023-04-03T04:19:04;7.35;;;3.17;;
75684;SDS011;64298;46.050;38.164;2023-04-03T04:21:31;11.52;;;4.18;;
75684;SDS011;64298;46.050;38.164;2023-04-03T04:24:00;9.00;;;2.67;;
75684;SDS011;64298;46.050;38.164;2023-04-03T04:26:26;6.40;;;3.55;;
75684;SDS011;64298;46.050;38.164;2023-04-03T04:28:58;7.40;;;3.17;;
75684;SDS011;64298;46.050;38.164;2023-04-03T04:31:24;8.52;;;3.45;;
75684;SDS011;64298;46.050;38.164;2023-04-03T04:33:51;10.82;;;4.05;;
75684;SDS011;64298;46.050;38.164;2023-04-03T04:36:19;10.07;;;3.60;;
75684;SDS011;64298;46.050;38.164;2023-04-03T04:39:04;11.35;;;3.65;;
75684;SDS011;64298;46.050;38.164;2023-04-03T04:41:36;10.15;;;3.80;;
75684;SDS011;64298;46.050;38.164;2023-04-03T04:44:03;11.25;;;3.90;;
75684;SDS011;64298;46.050;38.164;2023-04-03T04:46:33;11.60;;;3.67;;
75684;SDS011;64298;46.050;38.164;2023-04-03T04:49:04;9.48;;;3.83;;
75684;SDS011;64298;46.050;38.164;2023-04-03T04:51:30;11.15;;;3.05;;
75684;SDS011;64298;46.050;38.164;2023-04-03T04:54:05;11.45;;;3.58;;
75684;SDS011;64298;46.050;38.164;2023-04-03T04:56:31;8.73;;;3.30;;
75684;SDS011;64298;46.050;38.164;2023-04-03T04:58:58;6.78;;;3.53;;
75684;SDS011;64298;46.050;38.164;2023-04-03T05:01:25;8.43;;;3.13;;
75684;SDS011;64298;46.050;38.164;2023-04-03T05:04:01;10.70;;;3.47;;
75684;SDS011;64298;46.050;38.164;2023-04-03T05:06:31;13.02;;;3.55;;
75684;SDS011;64298;46.050;38.164;2023-04-03T05:09:06;8.82;;;3.33;;
75684;SDS011;64298;46.050;38.164;2023-04-03T05:11:32;12.82;;;3.58;;
75684;SDS011;64298;46.050;38.164;2023-04-03T05:13:59;11.45;;;3.55;;
75684;SDS011;64298;46.050;38.164;2023-04-03T05:16:30;10.75;;;4.50;;
75684;SDS011;64298;46.050;38.164;2023-04-03T05:18:57;8.63;;;3.40;;
75684;SDS011;64298;46.050;38.164;2023-04-03T05:21:23;10.02;;;2.70;;
75684;SDS011;64298;46.050;38.164;2023-04-03T05:23:55;9.05;;;4.28;;
75684;SDS011;64298;46.050;38.164;2023-04-03T05:26:21;7.50;;;3.25;;
75684;SDS011;64298;46.050;38.164;2023-04-03T05:28:50;8.48;;;3.70;;
75684;SDS011;64298;46.050;38.164;2023-04-03T05:31:19;6.78;;;3.40;;
75684;SDS011;64298;46.050;38.164;2023-04-03T05:33:46;13.02;;;3.40;;
75684;SDS011;64298;46.050;38.164;2023-04-03T05:36:17;8.52;;;3.13;;
75684;SDS011;64298;46.050;38.164;2023-04-03T05:38:49;9.38;;;3.42;;
75684;SDS011;64298;46.050;38.164;2023-04-03T05:41:40;8.20;;;3.17;;
75684;SDS011;64298;46.050;38.164;2023-04-03T05:44:06;8.70;;;2.78;;
75684;SDS011;64298;46.050;38.164;2023-04-03T05:46:32;6.88;;;3.05;;
75684;SDS011;64298;46.050;38.164;2023-04-03T05:49:04;8.23;;;3.28;;
75684;SDS011;64298;46.050;38.164;2023-04-03T05:51:34;5.75;;;2.83;;
75684;SDS011;64298;46.050;38.164;2023-04-03T05:56:52;11.90;;;3.72;;
75684;SDS011;64298;46.050;38.164;2023-04-03T05:59:20;9.05;;;3.13;;
75684;SDS011;64298;46.050;38.164;2023-04-03T06:01:52;9.27;;;3.28;;
75684;SDS011;64298;46.050;38.164;2023-04-03T06:04:18;12.57;;;4.03;;
75684;SDS011;64298;46.050;38.164;2023-04-03T06:09:15;9.15;;;3.53;;
75684;SDS011;64298;46.050;38.164;2023-04-03T06:11:43;9.70;;;3.13;;
75684;SDS011;64298;46.050;38.164;2023-04-03T06:14:14;7.50;;;3.03;;
75684;SDS011;64298;46.050;38.164;2023-04-03T06:16:45;7.47;;;2.80;;
75684;SDS011;64298;46.050;38.164;2023-04-03T06:19:11;6.85;;;3.05;;
75684;SDS011;64298;46.050;38.164;2023-04-03T06:21:48;10.02;;;3.65;;
75684;SDS011;64298;46.050;38.164;2023-04-03T06:24:17;8.55;;;3.15;;
75684;SDS011;64298;46.050;38.164;2023-04-03T06:26:49;12.57;;;3.42;;
75684;SDS011;64298;46.050;38.164;2023-04-03T06:29:16;8.20;;;3.17;;
75684;SDS011;64298;46.050;38.164;2023-04-03T06:31:45;7.90;;;3.28;;
75684;SDS011;64298;46.050;38.164;2023-04-03T06:34:11;8.63;;;2.72;;
75684;SDS011;64298;46.050;38.164;2023-04-03T06:36:39;6.40;;;2.60;;
75684;SDS011;64298;46.050;38.164;2023-04-03T06:39:09;7.90;;;3.88;;
75684;SDS011;64298;46.050;38.164;2023-04-03T06:41:44;9.15;;;3.50;;
75684;SDS011;64298;46.050;38.164;2023-04-03T06:44:13;8.15;;;3.67;;
75684;SDS011;64298;46.050;38.164;2023-04-03T06:46:44;5.78;;;2.40;;
75684;SDS011;64298;46.050;38.164;2023-04-03T06:49:16;6.63;;;2.58;;
75684;SDS011;64298;46.050;38.164;2023-04-03T06:51:42;8.05;;;2.78;;
75684;SDS011;64298;46.050;38.164;2023-04-03T06:54:10;8.18;;;2.65;;
75684;SDS011;64298;46.050;38.164;2023-04-03T06:56:39;5.75;;;2.63;;
75684;SDS011;64298;46.050;38.164;2023-04-03T06:59:08;6.55;;;2.63;;
75684;SDS011;64298;46.050;38.164;2023-04-03T07:01:38;8.88;;;3.40;;
75684;SDS011;64298;46.050;38.164;2023-04-03T07:04:07;5.70;;;2.78;;
75684;SDS011;64298;46.050;38.164;2023-04-03T07:06:38;5.47;;;2.97;;
75684;SDS011;64298;46.050;38.164;2023-04-03T07:09:08;9.32;;;2.90;;
75684;SDS011;64298;46.050;38.164;2023-04-03T07:11:40;6.30;;;3.08;;
75684;SDS011;64298;46.050;38.164;2023-04-03T07:14:12;8.75;;;3.38;;
75684;SDS011;64298;46.050;38.164;2023-04-03T07:16:38;6.72;;;3.53;;
75684;SDS011;64298;46.050;38.164;2023-04-03T07:19:09;7.00;;;2.67;;
75684;SDS011;64298;46.050;38.164;2023-04-03T07:21:38;7.13;;;3.30;;
75684;SDS011;64298;46.050;38.164;2023-04-03T07:24:04;9.02;;;3.50;;
75684;SDS011;64298;46.050;38.164;2023-04-03T07:26:33;5.95;;;3.15;;
75684;SDS011;64298;46.050;38.164;2023-04-03T07:29:02;5.45;;;2.88;;
75684;SDS011;64298;46.050;38.164;2023-04-03T07:31:33;7.85;;;3.58;;
75684;SDS011;64298;46.050;38.164;2023-04-03T07:34:00;10.43;;;3.90;;
75684;SDS011;64298;46.050;38.164;2023-04-03T07:36:26;5.07;;;2.58;;
75684;SDS011;64298;46.050;38.164;2023-04-03T07:38:54;3.60;;;2.05;;
75684;SDS011;64298;46.050;38.164;2023-04-03T07:41:24;7.60;;;3.03;;
75684;SDS011;64298;46.050;38.164;2023-04-03T07:43:52;9.15;;;2.90;;
75684;SDS011;64298;46.050;38.164;2023-04-03T07:46:24;7.05;;;3.15;;
75684;SDS011;64298;46.050;38.164;2023-04-03T07:48:51;6.95;;;2.97;;
75684;SDS011;64298;46.050;38.164;2023-04-03T07:51:17;7.75;;;2.03;;
75684;SDS011;64298;46.050;38.164;2023-04-03T07:53:43;6.80;;;2.75;;
75684;SDS011;64298;46.050;38.164;2023-04-03T07:56:12;7.50;;;2.70;;
75684;SDS011;64298;46.050;38.164;2023-04-03T07:58:38;5.45;;;2.35;;
75684;SDS011;64298;46.050;38.164;2023-04-03T08:01:09;7.57;;;2.90;;
75684;SDS011;64298;46.050;38.164;2023-04-03T08:03:37;9.63;;;3.00;;
75684;SDS011;64298;46.050;38.164;2023-04-03T08:06:07;6.85;;;2.65;;
75684;SDS011;64298;46.050;38.164;2023-04-03T08:08:36;5.00;;;2.22;;
75684;SDS011;64298;46.050;38.164;2023-04-03T08:11:02;6.40;;;2.90;;
75684;SDS011;64298;46.050;38.164;2023-04-03T08:13:52;6.10;;;3.33;;
75684;SDS011;64298;46.050;38.164;2023-04-03T08:16:20;5.13;;;2.80;;
75684;SDS011;64298;46.050;38.164;2023-04-03T08:18:54;7.95;;;2.50;;
75684;SDS011;64298;46.050;38.164;2023-04-03T08:21:20;5.85;;;2.85;;
75684;SDS011;64298;46.050;38.164;2023-04-03T08:23:50;6.88;;;2.42;;
75684;SDS011;64298;46.050;38.164;2023-04-03T08:26:17;7.00;;;2.40;;
75684;SDS011;64298;46.050;38.164;2023-04-03T08:28:46;4.75;;;2.17;;
75684;SDS011;64298;46.050;38.164;2023-04-03T08:31:16;6.28;;;3.25;;
75684;SDS011;64298;46.050;38.164;2023-04-03T08:33:46;6.65;;;3.22;;
75684;SDS011;64298;46.050;38.164;2023-04-03T08:36:17;6.88;;;3.42;;
75684;SDS011;64298;46.050;38.164;2023-04-03T08:38:51;5.65;;;2.28;;
75684;SDS011;64298;46.050;38.164;2023-04-03T08:41:34;5.20;;;2.55;;
75684;SDS011;64298;46.050;38.164;2023-04-03T08:52:09;5.38;;;1.83;;
75684;SDS011;64298;46.050;38.164;2023-04-03T08:55:01;7.40;;;3.00;;
75684;SDS011;64298;46.050;38.164;2023-04-03T08:57:34;25.73;;;3.30;;
75684;SDS011;64298;46.050;38.164;2023-04-03T09:05:16;6.82;;;2.63;;
75684;SDS011;64298;46.050;38.164;2023-04-03T09:07:58;4.82;;;1.65;;
75684;SDS011;64298;46.050;38.164;2023-04-03T09:13:21;7.22;;;2.30;;
75684;SDS011;64298;46.050;38.164;2023-04-03T09:16:25;6.90;;;3.30;;
75684;SDS011;64298;46.050;38.164;2023-04-03T09:19:08;5.40;;;1.73;;
75684;SDS011;64298;46.050;38.164;2023-04-03T09:25:02;6.03;;;2.35;;
75684;SDS011;64298;46.050;38.164;2023-04-03T09:28:11;5.05;;;2.42;;
75684;SDS011;64298;46.050;38.164;2023-04-03T09:30:37;4.90;;;1.83;;
75684;SDS011;64298;46.050;38.164;2023-04-03T09:33:03;7.15;;;2.92;;
75684;SDS011;64298;46.050;38.164;2023-04-03T09:35:33;7.10;;;2.08;;
75684;SDS011;64298;46.050;38.164;2023-04-03T09:43:31;9.27;;;2.85;;
75684;SDS011;64298;46.050;38.164;2023-04-03T09:48:57;5.40;;;2.45;;
75684;SDS011;64298;46.050;38.164;2023-04-03T09:51:36;11.95;;;2.85;;
75684;SDS011;64298;46.050;38.164;2023-04-03T09:56:57;6.43;;;2.03;;
75684;SDS011;64298;46.050;38.164;2023-04-03T09:59:32;5.07;;;2.45;;
75684;SDS011;64298;46.050;38.164;2023-04-03T10:02:00;9.27;;;2.60;;
75684;SDS011;64298;46.050;38.164;2023-04-03T10:04:39;5.05;;;1.80;;
75684;SDS011;64298;46.050;38.164;2023-04-03T10:10:14;7.93;;;2.65;;
75684;SDS011;64298;46.050;38.164;2023-04-03T10:12:43;7.97;;;1.98;;
75684;SDS011;64298;46.050;38.164;2023-04-03T10:15:16;13.82;;;2.10;;
75684;SDS011;64298;46.050;38.164;2023-04-03T10:32:06;6.65;;;2.58;;
75684;SDS011;64298;46.050;38.164;2023-04-03T10:40:49;6.40;;;2.03;;
75684;SDS011;64298;46.050;38.164;2023-04-03T10:51:45;6.28;;;2.22;;
75684;SDS011;64298;46.050;38.164;2023-04-03T10:54:17;4.28;;;1.40;;
75684;SDS011;64298;46.050;38.164;2023-04-03T10:57:02;9.63;;;2.17;;
75684;SDS011;64298;46.050;38.164;2023-04-03T10:59:35;7.53;;;1.95;;
75684;SDS011;64298;46.050;38.164;2023-04-03T11:05:02;9.00;;;1.90;;
75684;SDS011;64298;46.050;38.164;2023-04-03T11:07:38;5.00;;;1.48;;
75684;SDS011;64298;46.050;38.164;2023-04-03T11:10:14;9.55;;;2.08;;
75684;SDS011;64298;46.050;38.164;2023-04-03T11:12:50;7.50;;;1.90;;
75684;SDS011;64298;46.050;38.164;2023-04-03T11:15:23;7.75;;;2.28;;
75684;SDS011;64298;46.050;38.164;2023-04-03T11:17:53;6.88;;;2.40;;
75684;SDS011;64298;46.050;38.164;2023-04-03T11:20:32;4.72;;;2.03;;
75684;SDS011;64298;46.050;38.164;2023-04-03T11:23:06;7.82;;;2.17;;
75684;SDS011;64298;46.050;38.164;2023-04-03T11:25:41;6.85;;;2.20;;
75684;SDS011;64298;46.050;38.164;2023-04-03T11:28:12;5.05;;;1.63;;
75684;SDS011;64298;46.050;38.164;2023-04-03T11:36:30;7.20;;;2.25;;
75684;SDS011;64298;46.050;38.164;2023-04-03T11:39:29;6.32;;;2.45;;
75684;SDS011;64298;46.050;38.164;2023-04-03T11:44:50;7.75;;;2.47;;
75684;SDS011;64298;46.050;38.164;2023-04-03T11:55:56;6.32;;;2.25;;
75684;SDS011;64298;46.050;38.164;2023-04-03T11:58:33;6.43;;;2.20;;
75684;SDS011;64298;46.050;38.164;2023-04-03T12:01:09;6.72;;;2.47;;
75684;SDS011;64298;46.050;38.164;2023-04-03T12:08:48;7.85;;;2.40;;
75684;SDS011;64298;46.050;38.164;2023-04-03T12:11:39;9.15;;;2.20;;
75684;SDS011;64298;46.050;38.164;2023-04-03T12:14:15;7.13;;;1.95;;
75684;SDS011;64298;46.050;38.164;2023-04-03T12:16:46;8.88;;;2.22;;
75684;SDS011;64298;46.050;38.164;2023-04-03T12:26:43;12.65;;;2.75;;
75684;SDS011;64298;46.050;38.164;2023-04-03T12:40:31;10.20;;;2.45;;
75684;SDS011;64298;46.050;38.164;2023-04-03T12:46:03;8.10;;;2.45;;
75684;SDS011;64298;46.050;38.164;2023-04-03T12:48:31;8.13;;;1.77;;
75684;SDS011;64298;46.050;38.164;2023-04-03T12:53:50;5.93;;;2.20;;
75684;SDS011;64298;46.050;38.164;2023-04-03T12:56:30;6.95;;;2.85;;
75684;SDS011;64298;46.050;38.164;2023-04-03T13:01:52;6.43;;;2.35;;
75684;SDS011;64298;46.050;38.164;2023-04-03T13:04:23;10.10;;;2.30;;
75684;SDS011;64298;46.050;38.164;2023-04-03T13:06:50;6.38;;;2.63;;
75684;SDS011;64298;46.050;38.164;2023-04-03T13:14:55;7.35;;;2.47;;
75684;SDS011;64298;46.050;38.164;2023-04-03T13:17:24;6.45;;;1.92;;
75684;SDS011;64298;46.050;38.164;2023-04-03T13:19:53;14.45;;;3.00;;
75684;SDS011;64298;46.050;38.164;2023-04-03T13:24:59;9.20;;;2.58;;
75684;SDS011;64298;46.050;38.164;2023-04-03T13:27:30;10.68;;;3.05;;
75684;SDS011;64298;46.050;38.164;2023-04-03T13:30:03;4.75;;;1.83;;
75684;SDS011;64298;46.050;38.164;2023-04-03T13:32:31;8.88;;;2.50;;
75684;SDS011;64298;46.050;38.164;2023-04-03T13:35:02;9.63;;;1.90;;
75684;SDS011;64298;46.050;38.164;2023-04-03T13:37:33;6.38;;;2.47;;
75684;SDS011;64298;46.050;38.164;2023-04-03T13:40:18;9.10;;;2.28;;
75684;SDS011;64298;46.050;38.164;2023-04-03T13:42:48;9.25;;;1.95;;
75684;SDS011;64298;46.050;38.164;2023-04-03T13:45:32;11.63;;;2.15;;
75684;SDS011;64298;46.050;38.164;2023-04-03T13:48:08;8.50;;;2.10;;
75684;SDS011;64298;46.050;38.164;2023-04-03T13:53:24;8.38;;;2.85;;
75684;SDS011;64298;46.050;38.164;2023-04-03T13:55:53;7.78;;;2.42;;
75684;SDS011;64298;46.050;38.164;2023-04-03T13:58:29;13.88;;;2.05;;
75684;SDS011;64298;46.050;38.164;2023-04-03T14:04:11;9.82;;;2.25;;
75684;SDS011;64298;46.050;38.164;2023-04-03T14:06:40;8.73;;;2.50;;
75684;SDS011;64298;46.050;38.164;2023-04-03T14:09:11;6.38;;;2.13;;
75684;SDS011;64298;46.050;38.164;2023-04-03T14:11:38;7.38;;;2.33;;
75684;SDS011;64298;46.050;38.164;2023-04-03T14:14:12;9.50;;;2.53;;
75684;SDS011;64298;46.050;38.164;2023-04-03T14:16:46;6.53;;;1.83;;
75684;SDS011;64298;46.050;38.164;2023-04-03T14:19:25;7.07;;;2.30;;
75684;SDS011;64298;46.050;38.164;2023-04-03T14:21:53;5.03;;;1.95;;
75684;SDS011;64298;46.050;38.164;2023-04-03T14:24:20;9.80;;;2.00;;
75684;SDS011;64298;46.050;38.164;2023-04-03T14:26:51;7.93;;;2.40;;
75684;SDS011;64298;46.050;38.164;2023-04-03T14:29:18;7.28;;;2.60;;
75684;SDS011;64298;46.050;38.164;2023-04-03T14:31:46;7.70;;;2.50;;
75684;SDS011;64298;46.050;38.164;2023-04-03T14:34:15;5.85;;;1.90;;
75684;SDS011;64298;46.050;38.164;2023-04-03T14:36:44;7.95;;;2.50;;
75684;SDS011;64298;46.050;38.164;2023-04-03T14:39:16;8.20;;;1.92;;
75684;SDS011;64298;46.050;38.164;2023-04-03T14:41:44;9.40;;;2.22;;
75684;SDS011;64298;46.050;38.164;2023-04-03T14:44:15;6.13;;;1.77;;
75684;SDS011;64298;46.050;38.164;2023-04-03T14:46:44;5.40;;;2.10;;
75684;SDS011;64298;46.050;38.164;2023-04-03T14:49:18;4.63;;;1.70;;
75684;SDS011;64298;46.050;38.164;2023-04-03T14:51:48;4.68;;;1.95;;
75684;SDS011;64298;46.050;38.164;2023-04-03T14:54:22;5.68;;;1.90;;
75684;SDS011;64298;46.050;38.164;2023-04-03T14:56:55;7.45;;;1.88;;
75684;SDS011;64298;46.050;38.164;2023-04-03T14:59:26;9.40;;;2.22;;
75684;SDS011;64298;46.050;38.164;2023-04-03T15:01:55;5.80;;;2.10;;
75684;SDS011;64298;46.050;38.164;2023-04-03T15:04:23;4.72;;;2.22;;
75684;SDS011;64298;46.050;38.164;2023-04-03T15:06:50;5.65;;;2.08;;
75684;SDS011;64298;46.050;38.164;2023-04-03T15:09:21;7.18;;;2.13;;
75684;SDS011;64298;46.050;38.164;2023-04-03T15:11:50;6.18;;;2.20;;
75684;SDS011;64298;46.050;38.164;2023-04-03T15:14:17;8.95;;;2.10;;
75684;SDS011;64298;46.050;38.164;2023-04-03T15:16:46;10.00;;;1.48;;
75684;SDS011;64298;46.050;38.164;2023-04-03T15:19:13;6.82;;;1.52;;
75684;SDS011;64298;46.050;38.164;2023-04-03T15:21:39;6.82;;;1.92;;
75684;SDS011;64298;46.050;38.164;2023-04-03T15:24:08;7.55;;;1.67;;
75684;SDS011;64298;46.050;38.164;2023-04-03T15:26:38;8.45;;;2.45;;
75684;SDS011;64298;46.050;38.164;2023-04-03T15:29:06;10.75;;;2.15;;
75684;SDS011;64298;46.050;38.164;2023-04-03T15:31:34;6.75;;;2.17;;
75684;SDS011;64298;46.050;38.164;2023-04-03T15:34:02;5.97;;;1.88;;
75684;SDS011;64298;46.050;38.164;2023-04-03T15:36:33;6.95;;;2.22;;
75684;SDS011;64298;46.050;38.164;2023-04-03T15:39:05;8.10;;;2.10;;
75684;SDS011;64298;46.050;38.164;2023-04-03T15:41:33;7.75;;;1.70;;
75684;SDS011;64298;46.050;38.164;2023-04-03T15:44:22;6.00;;;1.58;;
75684;SDS011;64298;46.050;38.164;2023-04-03T15:46:48;3.80;;;1.60;;
75684;SDS011;64298;46.050;38.164;2023-04-03T15:49:17;4.80;;;1.65;;
75684;SDS011;64298;46.050;38.164;2023-04-03T15:51:44;6.28;;;1.80;;
75684;SDS011;64298;46.050;38.164;2023-04-03T15:54:21;4.22;;;1.85;;
75684;SDS011;64298;46.050;38.164;2023-04-03T15:57:09;5.05;;;1.70;;
75684;SDS011;64298;46.050;38.164;2023-04-03T15:59:35;5.53;;;2.10;;
75684;SDS011;64298;46.050;38.164;2023-04-03T16:02:01;7.35;;;1.60;;
75684;SDS011;64298;46.050;38.164;2023-04-03T16:04:30;5.80;;;1.60;;
75684;SDS011;64298;46.050;38.164;2023-04-03T16:07:04;7.45;;;2.58;;
75684;SDS011;64298;46.050;38.164;2023-04-03T16:09:33;6.13;;;1.67;;
75684;SDS011;64298;46.050;38.164;2023-04-03T16:12:03;4.95;;;1.42;;
75684;SDS011;64298;46.050;38.164;2023-04-03T16:14:31;4.13;;;1.65;;
75684;SDS011;64298;46.050;38.164;2023-04-03T16:17:00;7.78;;;2.58;;
75684;SDS011;64298;46.050;38.164;2023-04-03T16:19:29;4.70;;;2.17;;
75684;SDS011;64298;46.050;38.164;2023-04-03T16:21:58;4.25;;;1.92;;
75684;SDS011;64298;46.050;38.164;2023-04-03T16:24:24;5.20;;;2.30;;
75684;SDS011;64298;46.050;38.164;2023-04-03T16:26:52;5.68;;;2.08;;
75684;SDS011;64298;46.050;38.164;2023-04-03T16:29:21;6.15;;;2.50;;
75684;SDS011;64298;46.050;38.164;2023-04-03T16:31:46;4.95;;;2.63;;
75684;SDS011;64298;46.050;38.164;2023-04-03T16:34:15;6.35;;;2.10;;
75684;SDS011;64298;46.050;38.164;2023-04-03T16:36:41;4.35;;;1.90;;
75684;SDS011;64298;46.050;38.164;2023-04-03T16:39:07;5.65;;;2.25;;
75684;SDS011;64298;46.050;38.164;2023-04-03T16:41:37;4.93;;;2.53;;
75684;SDS011;64298;46.050;38.164;2023-04-03T16:44:03;4.82;;;2.00;;
75684;SDS011;64298;46.050;38.164;2023-04-03T16:46:34;4.15;;;2.00;;
75684;SDS011;64298;46.050;38.164;2023-04-03T16:49:00;7.53;;;2.53;;
75684;SDS011;64298;46.050;38.164;2023-04-03T16:51:26;5.82;;;2.45;;
75684;SDS011;64298;46.050;38.164;2023-04-03T16:53:57;6.13;;;2.13;;
75684;SDS011;64298;46.050;38.164;2023-04-03T16:56:31;8.45;;;2.70;;
75684;SDS011;64298;46.050;38.164;2023-04-03T16:59:03;5.72;;;2.60;;
75684;SDS011;64298;46.050;38.164;2023-04-03T17:01:32;9.20;;;2.72;;
75684;SDS011;64298;46.050;38.164;2023-04-03T17:03:58;6.80;;;2.75;;
75684;SDS011;64298;46.050;38.164;2023-04-03T17:06:24;6.80;;;2.47;;
75684;SDS011;64298;46.050;38.164;2023-04-03T17:08:53;6.30;;;3.10;;
75684;SDS011;64298;46.050;38.164;2023-04-03T17:11:28;6.07;;;3.00;;
75684;SDS011;64298;46.050;38.164;2023-04-03T17:13:54;9.98;;;3.25;;
75684;SDS011;64298;46.050;38.164;2023-04-03T17:16:20;7.32;;;4.07;;
75684;SDS011;64298;46.050;38.164;2023-04-03T17:18:47;12.68;;;4.10;;